OJAM/ADJ METAR and TAF weather

Enter ICAO airport designator
Station Type Date Time Source
OJAM METAR 2021/02/27 03:00 UTC NOAA

OJAM 270300Z 00000KT CAVOK 07/03 Q1018 NOSIG


Station Type Date Time Source
OJAM Decoded METAR 2021/02/27 03:00 UTC NOAA

Amman Airport, Jordan (OJAM) 31-59N 035-59E 768M
Feb 26, 2021 - 10:00 PM EST / 2021.02.27 0300 UTC
Wind: Calm:0
Visibility: greater than 7 mile(s):0
Temperature: 44 F (7 C)
Dew Point: 37 F (3 C)
Relative Humidity: 75%
Pressure (altimeter): 30.06 in. Hg (1018 hPa)
ob: OJAM 270300Z 00000KT CAVOK 07/03 Q1018 NOSIG
cycle: 3

Station Type Date Time Source
OJAM TAF 2021/02/26 18:15 UTC NOAA

TAF OJAM 261700Z 2618/2724 12008KT 5000 HZ NSC
TEMPO 2703/2706 3000 HZ

Example: see airport list